sensor_id;sensor_type;location;lat;lon;timestamp;P1;durP1;ratioP1;P2;durP2;ratioP2
74541;SDS011;63015;45.378;20.360;2022-12-13T00:01:22;41.92;;;15.85;;
74541;SDS011;63015;45.378;20.360;2022-12-13T00:03:24;36.88;;;14.80;;
74541;SDS011;63015;45.378;20.360;2022-12-13T00:05:24;38.63;;;15.18;;
74541;SDS011;63015;45.378;20.360;2022-12-13T00:07:25;33.92;;;14.45;;
74541;SDS011;63015;45.378;20.360;2022-12-13T00:09:25;35.80;;;14.27;;
74541;SDS011;63015;45.378;20.360;2022-12-13T00:11:26;32.95;;;14.23;;
74541;SDS011;63015;45.378;20.360;2022-12-13T00:13:27;31.85;;;13.88;;
74541;SDS011;63015;45.378;20.360;2022-12-13T00:15:28;32.28;;;13.90;;
74541;SDS011;63015;45.378;20.360;2022-12-13T00:17:30;32.58;;;13.75;;
74541;SDS011;63015;45.378;20.360;2022-12-13T00:19:31;33.35;;;13.50;;
74541;SDS011;63015;45.378;20.360;2022-12-13T00:21:31;29.38;;;12.32;;
74541;SDS011;63015;45.378;20.360;2022-12-13T00:23:33;30.70;;;13.32;;
74541;SDS011;63015;45.378;20.360;2022-12-13T00:25:34;31.00;;;12.60;;
74541;SDS011;63015;45.378;20.360;2022-12-13T00:27:34;25.80;;;11.60;;
74541;SDS011;63015;45.378;20.360;2022-12-13T00:29:35;30.10;;;12.25;;
74541;SDS011;63015;45.378;20.360;2022-12-13T00:31:35;29.48;;;12.75;;
74541;SDS011;63015;45.378;20.360;2022-12-13T00:33:36;23.38;;;10.40;;
74541;SDS011;63015;45.378;20.360;2022-12-13T00:35:39;27.38;;;11.00;;
74541;SDS011;63015;45.378;20.360;2022-12-13T00:37:40;28.63;;;11.60;;
74541;SDS011;63015;45.378;20.360;2022-12-13T00:39:41;28.52;;;11.93;;
74541;SDS011;63015;45.378;20.360;2022-12-13T00:41:42;30.40;;;11.90;;
74541;SDS011;63015;45.378;20.360;2022-12-13T00:45:46;25.55;;;11.27;;
74541;SDS011;63015;45.378;20.360;2022-12-13T00:47:47;29.45;;;12.05;;
74541;SDS011;63015;45.378;20.360;2022-12-13T00:49:47;24.38;;;10.85;;
74541;SDS011;63015;45.378;20.360;2022-12-13T00:51:48;26.90;;;11.32;;
74541;SDS011;63015;45.378;20.360;2022-12-13T00:53:49;23.38;;;10.88;;
74541;SDS011;63015;45.378;20.360;2022-12-13T00:55:49;23.65;;;10.35;;
74541;SDS011;63015;45.378;20.360;2022-12-13T00:57:50;25.30;;;10.98;;
74541;SDS011;63015;45.378;20.360;2022-12-13T00:59:51;24.80;;;11.20;;
74541;SDS011;63015;45.378;20.360;2022-12-13T01:01:52;26.27;;;10.40;;
74541;SDS011;63015;45.378;20.360;2022-12-13T01:03:53;27.75;;;11.05;;
74541;SDS011;63015;45.378;20.360;2022-12-13T01:05:55;24.38;;;10.73;;
74541;SDS011;63015;45.378;20.360;2022-12-13T01:07:56;25.50;;;10.75;;
74541;SDS011;63015;45.378;20.360;2022-12-13T01:09:57;27.45;;;11.60;;
74541;SDS011;63015;45.378;20.360;2022-12-13T01:11:58;23.08;;;10.45;;
74541;SDS011;63015;45.378;20.360;2022-12-13T01:14:01;29.05;;;12.00;;
74541;SDS011;63015;45.378;20.360;2022-12-13T01:16:03;25.25;;;11.07;;
74541;SDS011;63015;45.378;20.360;2022-12-13T01:18:05;24.05;;;10.52;;
74541;SDS011;63015;45.378;20.360;2022-12-13T01:20:05;29.10;;;12.20;;
74541;SDS011;63015;45.378;20.360;2022-12-13T01:22:06;30.58;;;12.75;;
74541;SDS011;63015;45.378;20.360;2022-12-13T01:24:07;31.30;;;13.25;;
74541;SDS011;63015;45.378;20.360;2022-12-13T01:26:09;32.08;;;13.00;;
74541;SDS011;63015;45.378;20.360;2022-12-13T01:28:12;33.10;;;13.13;;
74541;SDS011;63015;45.378;20.360;2022-12-13T01:30:12;29.58;;;13.20;;
74541;SDS011;63015;45.378;20.360;2022-12-13T01:32:13;32.30;;;14.05;;
74541;SDS011;63015;45.378;20.360;2022-12-13T01:34:15;31.30;;;13.70;;
74541;SDS011;63015;45.378;20.360;2022-12-13T01:36:19;34.35;;;14.77;;
74541;SDS011;63015;45.378;20.360;2022-12-13T01:38:21;33.25;;;14.32;;
74541;SDS011;63015;45.378;20.360;2022-12-13T01:40:22;34.22;;;14.15;;
74541;SDS011;63015;45.378;20.360;2022-12-13T01:42:23;34.08;;;14.07;;
74541;SDS011;63015;45.378;20.360;2022-12-13T01:46:55;29.73;;;12.80;;
74541;SDS011;63015;45.378;20.360;2022-12-13T01:49:14;34.05;;;14.30;;
74541;SDS011;63015;45.378;20.360;2022-12-13T01:51:18;33.92;;;14.57;;
74541;SDS011;63015;45.378;20.360;2022-12-13T01:53:24;33.83;;;14.88;;
74541;SDS011;63015;45.378;20.360;2022-12-13T01:55:29;35.97;;;15.13;;
74541;SDS011;63015;45.378;20.360;2022-12-13T01:57:33;34.58;;;13.68;;
74541;SDS011;63015;45.378;20.360;2022-12-13T01:59:36;37.47;;;14.55;;
74541;SDS011;63015;45.378;20.360;2022-12-13T02:01:39;31.67;;;14.35;;
74541;SDS011;63015;45.378;20.360;2022-12-13T02:03:39;35.47;;;15.52;;
74541;SDS011;63015;45.378;20.360;2022-12-13T02:05:45;35.13;;;14.73;;
74541;SDS011;63015;45.378;20.360;2022-12-13T02:07:52;35.65;;;15.07;;
74541;SDS011;63015;45.378;20.360;2022-12-13T02:09:54;32.10;;;14.52;;
74541;SDS011;63015;45.378;20.360;2022-12-13T02:11:58;36.92;;;14.02;;
74541;SDS011;63015;45.378;20.360;2022-12-13T02:13:58;36.90;;;14.80;;
74541;SDS011;63015;45.378;20.360;2022-12-13T02:27:54;30.20;;;12.77;;
74541;SDS011;63015;45.378;20.360;2022-12-13T02:32:31;30.02;;;13.43;;
74541;SDS011;63015;45.378;20.360;2022-12-13T02:34:43;32.15;;;13.13;;
74541;SDS011;63015;45.378;20.360;2022-12-13T02:39:07;34.40;;;13.50;;
74541;SDS011;63015;45.378;20.360;2022-12-13T02:41:16;29.42;;;13.18;;
74541;SDS011;63015;45.378;20.360;2022-12-13T02:44:01;33.83;;;13.85;;
74541;SDS011;63015;45.378;20.360;2022-12-13T02:45:49;32.88;;;13.48;;
74541;SDS011;63015;45.378;20.360;2022-12-13T02:47:53;33.75;;;13.95;;
74541;SDS011;63015;45.378;20.360;2022-12-13T02:49:58;28.83;;;13.00;;
74541;SDS011;63015;45.378;20.360;2022-12-13T02:52:05;33.80;;;13.13;;
74541;SDS011;63015;45.378;20.360;2022-12-13T02:54:08;30.77;;;13.73;;
74541;SDS011;63015;45.378;20.360;2022-12-13T02:56:08;27.13;;;12.73;;
74541;SDS011;63015;45.378;20.360;2022-12-13T02:58:13;33.08;;;13.48;;
74541;SDS011;63015;45.378;20.360;2022-12-13T03:00:29;32.13;;;12.93;;
74541;SDS011;63015;45.378;20.360;2022-12-13T03:05:53;27.83;;;12.20;;
74541;SDS011;63015;45.378;20.360;2022-12-13T03:10:14;29.92;;;12.73;;
74541;SDS011;63015;45.378;20.360;2022-12-13T03:12:39;26.75;;;11.90;;
74541;SDS011;63015;45.378;20.360;2022-12-13T03:17:06;32.08;;;13.25;;
74541;SDS011;63015;45.378;20.360;2022-12-13T03:19:10;32.13;;;13.15;;
74541;SDS011;63015;45.378;20.360;2022-12-13T03:21:12;29.92;;;12.95;;
74541;SDS011;63015;45.378;20.360;2022-12-13T03:23:12;32.63;;;12.68;;
74541;SDS011;63015;45.378;20.360;2022-12-13T03:25:14;30.65;;;13.40;;
74541;SDS011;63015;45.378;20.360;2022-12-13T03:27:14;33.10;;;12.85;;
74541;SDS011;63015;45.378;20.360;2022-12-13T03:29:15;29.08;;;12.45;;
74541;SDS011;63015;45.378;20.360;2022-12-13T03:31:16;32.20;;;13.50;;
74541;SDS011;63015;45.378;20.360;2022-12-13T03:33:16;29.95;;;13.55;;
74541;SDS011;63015;45.378;20.360;2022-12-13T03:35:17;35.42;;;14.02;;
74541;SDS011;63015;45.378;20.360;2022-12-13T03:37:19;32.40;;;14.38;;
74541;SDS011;63015;45.378;20.360;2022-12-13T03:39:20;31.10;;;12.85;;
74541;SDS011;63015;45.378;20.360;2022-12-13T03:41:22;30.17;;;13.32;;
74541;SDS011;63015;45.378;20.360;2022-12-13T03:43:30;29.40;;;13.52;;
74541;SDS011;63015;45.378;20.360;2022-12-13T03:45:31;33.95;;;13.68;;
74541;SDS011;63015;45.378;20.360;2022-12-13T03:47:31;34.72;;;12.70;;
74541;SDS011;63015;45.378;20.360;2022-12-13T03:49:32;31.00;;;13.98;;
74541;SDS011;63015;45.378;20.360;2022-12-13T03:51:33;29.70;;;12.73;;
74541;SDS011;63015;45.378;20.360;2022-12-13T03:53:33;32.92;;;13.68;;
74541;SDS011;63015;45.378;20.360;2022-12-13T03:55:34;31.08;;;13.55;;
74541;SDS011;63015;45.378;20.360;2022-12-13T03:57:34;32.65;;;14.35;;
74541;SDS011;63015;45.378;20.360;2022-12-13T03:59:35;32.88;;;13.85;;
74541;SDS011;63015;45.378;20.360;2022-12-13T04:01:36;31.45;;;13.50;;
74541;SDS011;63015;45.378;20.360;2022-12-13T04:03:36;34.55;;;14.45;;
74541;SDS011;63015;45.378;20.360;2022-12-13T04:05:38;29.98;;;12.50;;
74541;SDS011;63015;45.378;20.360;2022-12-13T04:07:39;32.88;;;13.25;;
74541;SDS011;63015;45.378;20.360;2022-12-13T04:09:39;33.33;;;13.75;;
74541;SDS011;63015;45.378;20.360;2022-12-13T04:11:40;28.77;;;13.10;;
74541;SDS011;63015;45.378;20.360;2022-12-13T04:13:59;31.75;;;12.45;;
74541;SDS011;63015;45.378;20.360;2022-12-13T04:16:00;33.92;;;13.93;;
74541;SDS011;63015;45.378;20.360;2022-12-13T04:18:01;34.08;;;13.90;;
74541;SDS011;63015;45.378;20.360;2022-12-13T04:20:02;31.35;;;13.38;;
74541;SDS011;63015;45.378;20.360;2022-12-13T04:22:03;33.05;;;13.57;;
74541;SDS011;63015;45.378;20.360;2022-12-13T04:24:03;31.10;;;13.43;;
74541;SDS011;63015;45.378;20.360;2022-12-13T04:26:04;33.17;;;13.85;;
74541;SDS011;63015;45.378;20.360;2022-12-13T04:28:05;32.20;;;14.20;;
74541;SDS011;63015;45.378;20.360;2022-12-13T04:30:07;30.25;;;13.90;;
74541;SDS011;63015;45.378;20.360;2022-12-13T04:32:08;32.85;;;14.15;;
74541;SDS011;63015;45.378;20.360;2022-12-13T04:34:08;35.33;;;14.52;;
74541;SDS011;63015;45.378;20.360;2022-12-13T04:36:09;32.17;;;13.68;;
74541;SDS011;63015;45.378;20.360;2022-12-13T04:38:10;38.63;;;15.85;;
74541;SDS011;63015;45.378;20.360;2022-12-13T04:40:10;33.53;;;13.82;;
74541;SDS011;63015;45.378;20.360;2022-12-13T04:42:11;34.67;;;15.15;;
74541;SDS011;63015;45.378;20.360;2022-12-13T04:44:12;33.95;;;14.85;;
74541;SDS011;63015;45.378;20.360;2022-12-13T04:46:12;37.38;;;16.80;;
74541;SDS011;63015;45.378;20.360;2022-12-13T04:48:13;36.88;;;15.80;;
74541;SDS011;63015;45.378;20.360;2022-12-13T04:50:14;35.20;;;15.10;;
74541;SDS011;63015;45.378;20.360;2022-12-13T04:52:15;35.05;;;14.18;;
74541;SDS011;63015;45.378;20.360;2022-12-13T04:54:15;32.08;;;14.50;;
74541;SDS011;63015;45.378;20.360;2022-12-13T04:56:16;31.00;;;14.32;;
74541;SDS011;63015;45.378;20.360;2022-12-13T04:58:16;36.75;;;15.15;;
74541;SDS011;63015;45.378;20.360;2022-12-13T05:00:18;30.00;;;13.63;;
74541;SDS011;63015;45.378;20.360;2022-12-13T05:02:21;38.00;;;14.93;;
74541;SDS011;63015;45.378;20.360;2022-12-13T05:04:21;36.08;;;15.98;;
74541;SDS011;63015;45.378;20.360;2022-12-13T05:06:22;32.63;;;14.10;;
74541;SDS011;63015;45.378;20.360;2022-12-13T05:08:23;37.38;;;15.57;;
74541;SDS011;63015;45.378;20.360;2022-12-13T05:10:23;36.60;;;15.10;;
74541;SDS011;63015;45.378;20.360;2022-12-13T05:12:24;39.10;;;16.17;;
74541;SDS011;63015;45.378;20.360;2022-12-13T05:14:24;42.60;;;16.77;;
74541;SDS011;63015;45.378;20.360;2022-12-13T05:16:25;39.10;;;16.55;;
74541;SDS011;63015;45.378;20.360;2022-12-13T05:18:26;41.35;;;16.75;;
74541;SDS011;63015;45.378;20.360;2022-12-13T05:20:27;36.35;;;16.02;;
74541;SDS011;63015;45.378;20.360;2022-12-13T05:22:27;32.35;;;14.48;;
74541;SDS011;63015;45.378;20.360;2022-12-13T05:24:31;32.17;;;14.70;;
74541;SDS011;63015;45.378;20.360;2022-12-13T05:26:31;30.95;;;13.80;;
74541;SDS011;63015;45.378;20.360;2022-12-13T05:28:32;33.58;;;14.13;;
74541;SDS011;63015;45.378;20.360;2022-12-13T05:30:33;33.08;;;14.68;;
74541;SDS011;63015;45.378;20.360;2022-12-13T05:32:37;40.00;;;16.42;;
74541;SDS011;63015;45.378;20.360;2022-12-13T05:34:38;38.05;;;16.15;;
74541;SDS011;63015;45.378;20.360;2022-12-13T05:36:38;39.33;;;15.98;;
74541;SDS011;63015;45.378;20.360;2022-12-13T05:38:39;37.78;;;15.63;;
74541;SDS011;63015;45.378;20.360;2022-12-13T05:40:40;40.60;;;15.88;;
74541;SDS011;63015;45.378;20.360;2022-12-13T05:42:40;33.40;;;13.50;;
74541;SDS011;63015;45.378;20.360;2022-12-13T05:44:41;32.38;;;13.85;;
74541;SDS011;63015;45.378;20.360;2022-12-13T05:46:41;35.17;;;14.57;;
74541;SDS011;63015;45.378;20.360;2022-12-13T05:48:42;33.88;;;13.65;;
74541;SDS011;63015;45.378;20.360;2022-12-13T05:50:43;32.67;;;14.07;;
74541;SDS011;63015;45.378;20.360;2022-12-13T05:52:44;36.78;;;15.55;;
74541;SDS011;63015;45.378;20.360;2022-12-13T05:54:44;32.60;;;14.70;;
74541;SDS011;63015;45.378;20.360;2022-12-13T05:56:45;36.67;;;15.48;;
74541;SDS011;63015;45.378;20.360;2022-12-13T05:58:46;36.90;;;15.50;;
74541;SDS011;63015;45.378;20.360;2022-12-13T06:00:46;36.97;;;15.50;;
74541;SDS011;63015;45.378;20.360;2022-12-13T06:02:47;42.55;;;16.35;;
74541;SDS011;63015;45.378;20.360;2022-12-13T06:04:47;37.67;;;16.98;;
74541;SDS011;63015;45.378;20.360;2022-12-13T06:06:48;40.65;;;17.70;;
74541;SDS011;63015;45.378;20.360;2022-12-13T06:08:49;46.08;;;19.95;;
74541;SDS011;63015;45.378;20.360;2022-12-13T06:10:54;42.67;;;18.58;;
74541;SDS011;63015;45.378;20.360;2022-12-13T06:12:55;60.05;;;22.98;;
74541;SDS011;63015;45.378;20.360;2022-12-13T06:14:55;55.05;;;22.23;;
74541;SDS011;63015;45.378;20.360;2022-12-13T06:16:56;83.40;;;30.70;;
74541;SDS011;63015;45.378;20.360;2022-12-13T06:18:57;90.85;;;30.83;;
74541;SDS011;63015;45.378;20.360;2022-12-13T06:20:58;103.00;;;32.22;;
74541;SDS011;63015;45.378;20.360;2022-12-13T06:23:00;87.45;;;33.50;;
74541;SDS011;63015;45.378;20.360;2022-12-13T06:25:01;84.88;;;30.67;;
74541;SDS011;63015;45.378;20.360;2022-12-13T06:27:01;75.43;;;27.75;;
74541;SDS011;63015;45.378;20.360;2022-12-13T06:29:04;92.43;;;29.95;;
74541;SDS011;63015;45.378;20.360;2022-12-13T06:31:04;73.45;;;27.50;;
74541;SDS011;63015;45.378;20.360;2022-12-13T06:33:05;75.65;;;27.88;;
74541;SDS011;63015;45.378;20.360;2022-12-13T06:35:06;69.05;;;27.15;;
74541;SDS011;63015;45.378;20.360;2022-12-13T06:37:09;61.50;;;24.27;;
74541;SDS011;63015;45.378;20.360;2022-12-13T06:39:11;58.70;;;23.42;;
74541;SDS011;63015;45.378;20.360;2022-12-13T06:41:12;58.63;;;22.75;;
74541;SDS011;63015;45.378;20.360;2022-12-13T06:43:14;59.05;;;21.50;;
74541;SDS011;63015;45.378;20.360;2022-12-13T06:45:15;54.53;;;21.15;;
74541;SDS011;63015;45.378;20.360;2022-12-13T06:47:16;52.08;;;22.10;;
74541;SDS011;63015;45.378;20.360;2022-12-13T06:49:16;51.05;;;19.95;;
74541;SDS011;63015;45.378;20.360;2022-12-13T06:51:17;43.83;;;19.00;;
74541;SDS011;63015;45.378;20.360;2022-12-13T06:53:18;48.90;;;19.67;;
74541;SDS011;63015;45.378;20.360;2022-12-13T06:55:19;47.90;;;20.05;;
74541;SDS011;63015;45.378;20.360;2022-12-13T06:57:19;42.90;;;18.25;;
74541;SDS011;63015;45.378;20.360;2022-12-13T06:59:20;49.25;;;19.45;;
74541;SDS011;63015;45.378;20.360;2022-12-13T07:01:21;50.05;;;20.25;;
74541;SDS011;63015;45.378;20.360;2022-12-13T07:03:21;49.70;;;21.15;;
74541;SDS011;63015;45.378;20.360;2022-12-13T07:05:22;44.97;;;18.90;;
74541;SDS011;63015;45.378;20.360;2022-12-13T07:07:24;48.35;;;21.58;;
74541;SDS011;63015;45.378;20.360;2022-12-13T07:09:25;53.53;;;22.63;;
74541;SDS011;63015;45.378;20.360;2022-12-13T07:11:26;51.55;;;23.67;;
74541;SDS011;63015;45.378;20.360;2022-12-13T07:13:28;91.50;;;32.60;;
74541;SDS011;63015;45.378;20.360;2022-12-13T07:15:31;89.75;;;33.97;;
74541;SDS011;63015;45.378;20.360;2022-12-13T07:17:33;109.20;;;37.17;;
74541;SDS011;63015;45.378;20.360;2022-12-13T07:19:33;113.40;;;40.90;;
74541;SDS011;63015;45.378;20.360;2022-12-13T07:21:34;82.95;;;32.60;;
74541;SDS011;63015;45.378;20.360;2022-12-13T07:23:35;92.80;;;36.20;;
74541;SDS011;63015;45.378;20.360;2022-12-13T07:25:37;109.55;;;39.38;;
74541;SDS011;63015;45.378;20.360;2022-12-13T07:27:38;178.82;;;58.58;;
74541;SDS011;63015;45.378;20.360;2022-12-13T07:29:38;283.20;;;93.03;;
74541;SDS011;63015;45.378;20.360;2022-12-13T07:31:39;247.15;;;77.65;;
74541;SDS011;63015;45.378;20.360;2022-12-13T07:33:39;234.30;;;78.80;;
74541;SDS011;63015;45.378;20.360;2022-12-13T07:35:40;168.73;;;59.05;;
74541;SDS011;63015;45.378;20.360;2022-12-13T07:37:41;120.85;;;45.42;;
74541;SDS011;63015;45.378;20.360;2022-12-13T07:39:42;119.43;;;43.63;;
74541;SDS011;63015;45.378;20.360;2022-12-13T07:41:43;92.65;;;37.03;;
74541;SDS011;63015;45.378;20.360;2022-12-13T07:43:44;115.53;;;43.55;;
74541;SDS011;63015;45.378;20.360;2022-12-13T07:45:44;102.47;;;38.88;;
74541;SDS011;63015;45.378;20.360;2022-12-13T07:47:45;88.60;;;34.97;;
74541;SDS011;63015;45.378;20.360;2022-12-13T07:49:46;94.38;;;35.40;;
74541;SDS011;63015;45.378;20.360;2022-12-13T07:51:46;117.35;;;43.00;;
74541;SDS011;63015;45.378;20.360;2022-12-13T07:53:48;108.00;;;38.05;;
74541;SDS011;63015;45.378;20.360;2022-12-13T07:55:48;96.68;;;36.60;;
74541;SDS011;63015;45.378;20.360;2022-12-13T07:57:49;64.40;;;26.67;;
74541;SDS011;63015;45.378;20.360;2022-12-13T07:59:49;54.38;;;24.42;;
74541;SDS011;63015;45.378;20.360;2022-12-13T08:01:50;59.88;;;26.13;;
74541;SDS011;63015;45.378;20.360;2022-12-13T08:03:50;52.42;;;23.92;;
74541;SDS011;63015;45.378;20.360;2022-12-13T08:05:58;56.08;;;22.40;;
74541;SDS011;63015;45.378;20.360;2022-12-13T08:08:04;68.68;;;27.70;;
74541;SDS011;63015;45.378;20.360;2022-12-13T08:10:06;49.42;;;19.85;;
74541;SDS011;63015;45.378;20.360;2022-12-13T08:12:07;52.67;;;24.35;;
74541;SDS011;63015;45.378;20.360;2022-12-13T08:14:08;63.38;;;24.27;;
74541;SDS011;63015;45.378;20.360;2022-12-13T08:16:09;56.85;;;22.80;;
74541;SDS011;63015;45.378;20.360;2022-12-13T08:18:13;38.63;;;16.63;;
74541;SDS011;63015;45.378;20.360;2022-12-13T08:20:14;35.33;;;15.25;;
74541;SDS011;63015;45.378;20.360;2022-12-13T08:22:16;46.78;;;18.45;;
74541;SDS011;63015;45.378;20.360;2022-12-13T08:24:17;33.20;;;14.52;;
74541;SDS011;63015;45.378;20.360;2022-12-13T08:26:18;26.48;;;12.95;;
74541;SDS011;63015;45.378;20.360;2022-12-13T08:28:19;39.70;;;16.83;;
74541;SDS011;63015;45.378;20.360;2022-12-13T08:30:20;44.53;;;18.35;;
74541;SDS011;63015;45.378;20.360;2022-12-13T08:32:21;54.80;;;21.67;;
74541;SDS011;63015;45.378;20.360;2022-12-13T08:34:22;30.75;;;14.80;;
74541;SDS011;63015;45.378;20.360;2022-12-13T08:36:22;34.40;;;15.77;;
74541;SDS011;63015;45.378;20.360;2022-12-13T08:38:26;33.80;;;16.45;;
74541;SDS011;63015;45.378;20.360;2022-12-13T08:40:26;35.08;;;15.77;;
74541;SDS011;63015;45.378;20.360;2022-12-13T08:42:27;42.90;;;18.67;;
74541;SDS011;63015;45.378;20.360;2022-12-13T08:44:27;32.45;;;14.70;;
74541;SDS011;63015;45.378;20.360;2022-12-13T08:46:28;34.05;;;15.80;;
74541;SDS011;63015;45.378;20.360;2022-12-13T08:48:29;38.95;;;16.88;;
74541;SDS011;63015;45.378;20.360;2022-12-13T08:50:31;35.72;;;18.30;;
74541;SDS011;63015;45.378;20.360;2022-12-13T08:52:32;41.85;;;17.40;;
74541;SDS011;63015;45.378;20.360;2022-12-13T08:54:34;36.53;;;14.73;;
74541;SDS011;63015;45.378;20.360;2022-12-13T08:56:35;32.85;;;14.10;;
74541;SDS011;63015;45.378;20.360;2022-12-13T08:58:36;38.38;;;15.57;;
74541;SDS011;63015;45.378;20.360;2022-12-13T09:00:38;30.52;;;13.70;;
74541;SDS011;63015;45.378;20.360;2022-12-13T09:02:39;40.03;;;16.60;;
74541;SDS011;63015;45.378;20.360;2022-12-13T09:04:40;34.80;;;16.95;;
74541;SDS011;63015;45.378;20.360;2022-12-13T09:06:41;32.70;;;15.57;;
74541;SDS011;63015;45.378;20.360;2022-12-13T09:08:42;30.60;;;15.02;;
74541;SDS011;63015;45.378;20.360;2022-12-13T09:10:43;28.17;;;13.55;;
74541;SDS011;63015;45.378;20.360;2022-12-13T09:12:45;26.80;;;10.57;;
74541;SDS011;63015;45.378;20.360;2022-12-13T09:14:45;24.85;;;12.65;;
74541;SDS011;63015;45.378;20.360;2022-12-13T09:16:46;25.95;;;12.82;;
74541;SDS011;63015;45.378;20.360;2022-12-13T09:18:47;28.80;;;13.13;;
74541;SDS011;63015;45.378;20.360;2022-12-13T09:20:47;22.60;;;10.60;;
74541;SDS011;63015;45.378;20.360;2022-12-13T09:22:49;30.05;;;14.45;;
74541;SDS011;63015;45.378;20.360;2022-12-13T09:24:50;32.92;;;14.70;;
74541;SDS011;63015;45.378;20.360;2022-12-13T09:26:50;25.77;;;12.13;;
74541;SDS011;63015;45.378;20.360;2022-12-13T09:28:52;30.40;;;13.27;;
74541;SDS011;63015;45.378;20.360;2022-12-13T09:30:53;32.60;;;14.52;;
74541;SDS011;63015;45.378;20.360;2022-12-13T09:32:55;25.60;;;12.57;;
74541;SDS011;63015;45.378;20.360;2022-12-13T09:34:55;35.28;;;15.48;;
74541;SDS011;63015;45.378;20.360;2022-12-13T09:36:56;34.08;;;15.23;;
74541;SDS011;63015;45.378;20.360;2022-12-13T09:38:57;33.70;;;16.02;;
74541;SDS011;63015;45.378;20.360;2022-12-13T09:40:58;28.27;;;11.98;;
74541;SDS011;63015;45.378;20.360;2022-12-13T09:43:09;28.15;;;12.10;;
74541;SDS011;63015;45.378;20.360;2022-12-13T09:45:15;78.78;;;28.85;;
74541;SDS011;63015;45.378;20.360;2022-12-13T09:47:20;45.60;;;18.23;;
74541;SDS011;63015;45.378;20.360;2022-12-13T09:49:37;29.42;;;13.10;;
74541;SDS011;63015;45.378;20.360;2022-12-13T09:51:40;42.38;;;15.40;;
74541;SDS011;63015;45.378;20.360;2022-12-13T09:53:49;32.97;;;12.95;;
74541;SDS011;63015;45.378;20.360;2022-12-13T09:55:52;30.95;;;13.55;;
74541;SDS011;63015;45.378;20.360;2022-12-13T09:57:52;27.73;;;12.75;;
74541;SDS011;63015;45.378;20.360;2022-12-13T09:59:53;23.63;;;11.32;;
74541;SDS011;63015;45.378;20.360;2022-12-13T10:01:55;28.83;;;13.85;;
74541;SDS011;63015;45.378;20.360;2022-12-13T10:03:56;22.83;;;10.35;;
74541;SDS011;63015;45.378;20.360;2022-12-13T10:06:00;24.83;;;11.40;;
74541;SDS011;63015;45.378;20.360;2022-12-13T10:08:13;27.75;;;12.40;;
74541;SDS011;63015;45.378;20.360;2022-12-13T10:10:16;28.65;;;11.48;;
74541;SDS011;63015;45.378;20.360;2022-12-13T10:12:17;15.98;;;5.88;;
74541;SDS011;63015;45.378;20.360;2022-12-13T10:14:26;14.80;;;5.93;;
74541;SDS011;63015;45.378;20.360;2022-12-13T10:18:36;12.70;;;6.13;;
74541;SDS011;63015;45.378;20.360;2022-12-13T10:20:39;16.50;;;7.90;;
74541;SDS011;63015;45.378;20.360;2022-12-13T10:22:40;9.20;;;4.75;;
74541;SDS011;63015;45.378;20.360;2022-12-13T10:26:49;11.23;;;4.85;;
74541;SDS011;63015;45.378;20.360;2022-12-13T10:28:50;24.45;;;10.45;;
74541;SDS011;63015;45.378;20.360;2022-12-13T10:31:00;21.40;;;8.82;;
74541;SDS011;63015;45.378;20.360;2022-12-13T10:33:02;14.65;;;5.75;;
74541;SDS011;63015;45.378;20.360;2022-12-13T10:35:15;26.52;;;10.05;;
74541;SDS011;63015;45.378;20.360;2022-12-13T10:39:40;9.80;;;3.08;;
74541;SDS011;63015;45.378;20.360;2022-12-13T10:41:42;13.77;;;5.63;;
74541;SDS011;63015;45.378;20.360;2022-12-13T10:43:45;6.68;;;2.53;;
74541;SDS011;63015;45.378;20.360;2022-12-13T10:46:17;31.27;;;12.98;;
74541;SDS011;63015;45.378;20.360;2022-12-13T10:48:20;9.50;;;4.47;;
74541;SDS011;63015;45.378;20.360;2022-12-13T10:50:26;13.15;;;5.57;;
74541;SDS011;63015;45.378;20.360;2022-12-13T10:52:32;16.35;;;8.40;;
74541;SDS011;63015;45.378;20.360;2022-12-13T10:54:37;27.92;;;12.35;;
74541;SDS011;63015;45.378;20.360;2022-12-13T10:56:41;20.52;;;9.00;;
74541;SDS011;63015;45.378;20.360;2022-12-13T10:58:47;25.50;;;11.95;;
74541;SDS011;63015;45.378;20.360;2022-12-13T11:00:50;19.75;;;8.38;;
74541;SDS011;63015;45.378;20.360;2022-12-13T11:02:53;15.48;;;6.70;;
74541;SDS011;63015;45.378;20.360;2022-12-13T11:04:55;16.33;;;7.70;;
74541;SDS011;63015;45.378;20.360;2022-12-13T11:07:01;18.75;;;9.38;;
74541;SDS011;63015;45.378;20.360;2022-12-13T11:09:33;10.02;;;4.03;;
74541;SDS011;63015;45.378;20.360;2022-12-13T11:11:35;36.83;;;14.40;;
74541;SDS011;63015;45.378;20.360;2022-12-13T11:13:36;17.60;;;6.30;;
74541;SDS011;63015;45.378;20.360;2022-12-13T11:15:40;11.68;;;5.18;;
74541;SDS011;63015;45.378;20.360;2022-12-13T11:17:46;15.05;;;5.85;;
74541;SDS011;63015;45.378;20.360;2022-12-13T11:19:51;13.95;;;4.97;;
74541;SDS011;63015;45.378;20.360;2022-12-13T11:21:55;13.85;;;6.22;;
74541;SDS011;63015;45.378;20.360;2022-12-13T11:23:56;16.75;;;7.18;;
74541;SDS011;63015;45.378;20.360;2022-12-13T11:26:01;17.25;;;7.97;;
74541;SDS011;63015;45.378;20.360;2022-12-13T11:40:43;24.45;;;9.63;;
74541;SDS011;63015;45.378;20.360;2022-12-13T11:49:45;22.88;;;7.63;;
74541;SDS011;63015;45.378;20.360;2022-12-13T11:51:49;13.68;;;5.60;;
74541;SDS011;63015;45.378;20.360;2022-12-13T11:53:57;20.45;;;9.27;;
74541;SDS011;63015;45.378;20.360;2022-12-13T11:58:30;28.85;;;12.57;;
74541;SDS011;63015;45.378;20.360;2022-12-13T12:00:40;12.48;;;5.88;;
74541;SDS011;63015;45.378;20.360;2022-12-13T12:02:48;14.35;;;6.75;;
74541;SDS011;63015;45.378;20.360;2022-12-13T12:04:55;19.38;;;8.65;;
74541;SDS011;63015;45.378;20.360;2022-12-13T12:09:12;16.55;;;7.20;;
74541;SDS011;63015;45.378;20.360;2022-12-13T12:13:38;24.30;;;9.93;;
74541;SDS011;63015;45.378;20.360;2022-12-13T12:16:29;28.58;;;10.68;;
74541;SDS011;63015;45.378;20.360;2022-12-13T12:18:14;11.35;;;5.05;;
74541;SDS011;63015;45.378;20.360;2022-12-13T12:20:18;17.10;;;8.02;;
74541;SDS011;63015;45.378;20.360;2022-12-13T12:24:45;17.95;;;8.50;;
74541;SDS011;63015;45.378;20.360;2022-12-13T12:31:44;25.17;;;10.63;;
74541;SDS011;63015;45.378;20.360;2022-12-13T12:34:02;11.10;;;5.57;;
74541;SDS011;63015;45.378;20.360;2022-12-13T12:39:12;27.40;;;12.07;;
74541;SDS011;63015;45.378;20.360;2022-12-13T12:43:40;25.17;;;11.65;;
74541;SDS011;63015;45.378;20.360;2022-12-13T12:55:08;38.17;;;18.02;;
74541;SDS011;63015;45.378;20.360;2022-12-13T13:00:03;28.50;;;13.98;;
74541;SDS011;63015;45.378;20.360;2022-12-13T13:04:31;28.73;;;14.23;;
74541;SDS011;63015;45.378;20.360;2022-12-13T13:06:36;28.63;;;11.88;;
74541;SDS011;63015;45.378;20.360;2022-12-13T13:10:46;28.80;;;13.25;;
74541;SDS011;63015;45.378;20.360;2022-12-13T13:12:48;28.08;;;13.45;;
74541;SDS011;63015;45.378;20.360;2022-12-13T13:14:48;25.88;;;12.45;;
74541;SDS011;63015;45.378;20.360;2022-12-13T13:16:49;29.38;;;13.27;;
74541;SDS011;63015;45.378;20.360;2022-12-13T13:18:50;49.25;;;19.33;;
74541;SDS011;63015;45.378;20.360;2022-12-13T13:23:23;20.02;;;8.02;;